Time;durP1;ratioP1;P1;durP2;ratioP2;P2;SDS_P1;SDS_P2;PMS_P1;PMS_P2;Temp;Humidity;BMP_temperature;BMP_pressure;BME280_temperature;BME280_humidity;BME280_pressure;Samples;Min_cycle;Max_cycle;Signal;HPM_P1;HPM_P2
2021/03/14 00:00:28;;;;;;;46.43;24.00;;;;;;;0.93;98.42;95528.34;5092376;28;20205;-63
2021/03/14 00:02:56;;;;;;;58.03;32.80;;;;;;;0.98;97.89;95533.56;5091902;28;20604;-63
2021/03/14 00:05:24;;;;;;;60.63;32.80;;;;;;;0.96;98.86;95525.31;5092163;28;20197;-62
2021/03/14 00:07:51;;;;;;;69.27;35.63;;;;;;;0.95;99.13;95519.44;5092007;28;20197;-61
2021/03/14 00:10:18;;;;;;;75.47;37.37;;;;;;;0.91;99.14;95505.56;5091987;28;20228;-62
2021/03/14 00:12:45;;;;;;;85.83;40.23;;;;;;;0.92;99.40;95509.66;5091984;28;20744;-61
2021/03/14 00:15:13;;;;;;;75.80;37.70;;;;;;;0.93;100.00;95511.22;5091928;28;20223;-62
2021/03/14 00:17:40;;;;;;;67.20;35.07;;;;;;;0.81;100.00;95511.28;5091762;28;20222;-63
2021/03/14 00:20:09;;;;;;;71.47;35.80;;;;;;;0.64;99.87;95513.06;5091522;28;20207;-62
2021/03/14 00:22:37;;;;;;;87.57;41.67;;;;;;;0.68;99.55;95516.72;5090924;28;20580;-62
2021/03/14 00:25:05;;;;;;;98.20;43.43;;;;;;;0.72;100.00;95517.78;5091783;28;20258;-60
2021/03/14 00:27:32;;;;;;;94.13;44.77;;;;;;;0.69;100.00;95508.03;5091759;28;20284;-62
2021/03/14 00:29:59;;;;;;;88.93;43.70;;;;;;;0.69;100.00;95512.38;5091516;28;20293;-63
2021/03/14 00:32:26;;;;;;;89.87;44.27;;;;;;;0.64;100.00;95509.72;5091414;28;20192;-64
2021/03/14 00:34:53;;;;;;;89.03;44.87;;;;;;;0.72;100.00;95512.69;5091270;28;20189;-62
2021/03/14 00:37:21;;;;;;;93.50;43.63;;;;;;;0.79;100.00;95509.97;5091382;28;20281;-63
2021/03/14 00:39:48;;;;;;;81.33;42.47;;;;;;;0.77;100.00;95510.22;5091474;28;20263;-63
2021/03/14 00:42:15;;;;;;;78.03;39.63;;;;;;;0.75;100.00;95496.09;5091308;28;20246;-62
2021/03/14 00:44:42;;;;;;;89.97;44.67;;;;;;;0.76;100.00;95488.19;5091270;28;20224;-63
2021/03/14 00:47:10;;;;;;;82.10;42.50;;;;;;;0.71;100.00;95490.66;5091012;28;20217;-62
2021/03/14 00:49:37;;;;;;;94.23;46.80;;;;;;;0.71;100.00;95493.22;5091475;28;20207;-64
2021/03/14 00:52:06;;;;;;;76.07;38.43;;;;;;;0.65;100.00;95485.72;5091183;28;20682;-62
2021/03/14 00:54:37;;;;;;;79.60;39.93;;;;;;;0.54;100.00;95496.78;5091015;28;20197;-62
2021/03/14 00:57:04;;;;;;;69.50;37.40;;;;;;;0.49;100.00;95484.69;5091005;28;20233;-63
2021/03/14 00:59:32;;;;;;;71.27;39.33;;;;;;;0.63;100.00;95483.38;5090859;28;20288;-63
2021/03/14 01:01:59;;;;;;;59.27;32.60;;;;;;;0.64;100.00;95484.94;5090841;28;20278;-62
2021/03/14 01:04:26;;;;;;;39.00;21.40;;;;;;;0.66;100.00;95480.34;5090971;28;20713;-64
2021/03/14 01:06:53;;;;;;;34.03;20.47;;;;;;;0.32;100.00;95473.63;5090848;28;20203;-62
2021/03/14 01:09:20;;;;;;;37.13;22.50;;;;;;;0.35;100.00;95468.06;5090816;28;20667;-62
2021/03/14 01:11:48;;;;;;;36.60;21.00;;;;;;;0.31;100.00;95467.75;5090858;28;20203;-63
2021/03/14 01:14:17;;;;;;;31.27;18.20;;;;;;;0.21;100.00;95461.69;5090681;28;20192;-62
2021/03/14 01:16:45;;;;;;;34.67;20.00;;;;;;;0.19;100.00;95456.81;5090836;28;20238;-64
2021/03/14 01:19:12;;;;;;;31.60;19.50;;;;;;;0.24;100.00;95456.91;5091123;28;20192;-62
2021/03/14 01:21:39;;;;;;;34.60;20.60;;;;;;;0.21;100.00;95464.25;5090418;28;20247;-61
2021/03/14 01:24:06;;;;;;;40.57;24.33;;;;;;;0.07;100.00;95462.97;5090535;28;20655;-62
2021/03/14 01:26:33;;;;;;;50.00;25.20;;;;;;;-0.03;100.00;95463.56;5090441;28;20342;-64
2021/03/14 01:29:01;;;;;;;47.30;26.80;;;;;;;-0.11;100.00;95471.59;5090372;28;20238;-63
2021/03/14 01:31:28;;;;;;;47.73;26.17;;;;;;;-0.33;100.00;95470.63;5090410;28;20278;-62
2021/03/14 01:33:55;;;;;;;47.80;25.80;;;;;;;-0.19;100.00;95464.25;5090362;28;20203;-63
2021/03/14 01:36:22;;;;;;;52.73;27.87;;;;;;;-0.16;100.00;95464.63;5090407;28;20318;-62
2021/03/14 01:38:49;;;;;;;59.97;30.13;;;;;;;-0.11;100.00;95463.94;5090487;28;20196;-63
2021/03/14 01:41:16;;;;;;;61.67;31.87;;;;;;;-0.01;100.00;95457.22;5090398;28;20211;-60
2021/03/14 01:43:43;;;;;;;59.77;32.50;;;;;;;0.00;100.00;95463.88;5090391;28;20651;-61
2021/03/14 01:46:12;;;;;;;65.60;34.73;;;;;;;0.06;100.00;95456.31;5090606;28;20216;-63
2021/03/14 01:48:40;;;;;;;61.33;33.90;;;;;;;0.12;100.00;95458.72;5090497;28;20199;-62
2021/03/14 01:51:07;;;;;;;67.13;34.53;;;;;;;0.08;100.00;95464.53;5090291;28;20199;-62
2021/03/14 01:53:34;;;;;;;56.73;31.43;;;;;;;-0.03;100.00;95459.22;5090173;28;20280;-62
2021/03/14 01:56:02;;;;;;;58.40;33.03;;;;;;;-0.01;100.00;95457.22;5090019;28;20314;-62
2021/03/14 01:58:29;;;;;;;59.17;32.23;;;;;;;-0.06;100.00;95456.38;5090074;28;20199;-61
2021/03/14 02:00:56;;;;;;;58.23;32.07;;;;;;;-0.05;100.00;95458.66;5090154;28;20189;-63
2021/03/14 02:03:25;;;;;;;56.60;31.37;;;;;;;-0.01;100.00;95459.78;5089883;28;20272;-62
2021/03/14 02:05:52;;;;;;;57.63;32.00;;;;;;;-0.09;100.00;95455.03;5090230;28;20246;-62
2021/03/14 02:08:20;;;;;;;58.10;32.00;;;;;;;-0.04;100.00;95451.78;5090560;28;20227;-62
2021/03/14 02:10:49;;;;;;;63.83;33.33;;;;;;;-0.09;100.00;95457.56;5090286;28;20195;-62
2021/03/14 02:13:21;;;;;;;67.87;34.07;;;;;;;-0.05;100.00;95457.91;5090187;28;20280;-62
2021/03/14 02:15:56;;;;;;;73.43;39.13;;;;;;;0.00;100.00;95447.81;5090084;28;20269;-63
2021/03/14 02:18:27;;;;;;;72.57;38.90;;;;;;;0.04;100.00;95460.88;5089911;28;20227;-62
2021/03/14 02:20:56;;;;;;;75.63;40.10;;;;;;;0.22;100.00;95450.47;5089999;28;20197;-63
2021/03/14 02:23:31;;;;;;;69.37;37.20;;;;;;;0.29;100.00;95453.66;5090254;28;20198;-63
2021/03/14 02:26:03;;;;;;;66.43;34.83;;;;;;;0.34;100.00;95451.19;5089975;28;20191;-62
2021/03/14 02:28:32;;;;;;;63.07;33.97;;;;;;;0.28;100.00;95454.66;5089990;28;20188;-63
2021/03/14 02:31:00;;;;;;;60.93;32.27;;;;;;;0.28;100.00;95457.22;5090099;28;20200;-63
2021/03/14 02:33:31;;;;;;;59.17;33.63;;;;;;;0.32;100.00;95453.19;5089841;28;20758;-63
2021/03/14 02:35:59;;;;;;;57.90;31.20;;;;;;;0.36;100.00;95457.63;5089679;28;20219;-63
2021/03/14 02:38:27;;;;;;;55.13;31.80;;;;;;;0.37;100.00;95448.19;5089753;28;20196;-65
2021/03/14 02:40:56;;;;;;;54.63;30.77;;;;;;;0.41;100.00;95451.81;5089842;28;20193;-62
2021/03/14 02:43:23;;;;;;;56.67;30.73;;;;;;;0.34;100.00;95448.66;5089806;28;20236;-63
2021/03/14 02:45:52;;;;;;;58.37;31.77;;;;;;;0.33;100.00;95452.19;5092821;28;20719;-62
2021/03/14 02:48:20;;;;;;;58.10;31.30;;;;;;;0.33;100.00;95452.19;5093595;28;20242;-63
2021/03/14 02:50:48;;;;;;;58.33;31.27;;;;;;;0.35;100.00;95452.72;5093523;28;20274;-63
2021/03/14 02:53:17;;;;;;;55.67;30.07;;;;;;;0.28;100.00;95459.78;5093417;28;20326;-63
2021/03/14 02:55:45;;;;;;;51.60;30.70;;;;;;;0.26;100.00;95466.88;5093632;28;20227;-61
2021/03/14 02:58:14;;;;;;;59.80;33.23;;;;;;;0.34;100.00;95457.09;5093431;28;20688;-62
2021/03/14 03:00:43;;;;;;;57.73;31.33;;;;;;;0.28;100.00;95454.66;5093632;28;20196;-61
2021/03/14 03:03:13;;;;;;;54.77;31.60;;;;;;;0.30;100.00;95442.44;5093282;28;20307;-64
2021/03/14 03:05:40;;;;;;;51.03;29.93;;;;;;;0.22;100.00;95441.03;5093179;28;20670;-62
2021/03/14 03:08:08;;;;;;;53.43;30.23;;;;;;;0.27;100.00;95438.56;5092985;28;20275;-63
2021/03/14 03:10:37;;;;;;;54.77;31.20;;;;;;;0.36;100.00;95437.16;5092940;28;20196;-62
2021/03/14 03:13:05;;;;;;;50.27;27.97;;;;;;;0.10;100.00;95444.66;5093317;28;20284;-62
2021/03/14 03:15:33;;;;;;;59.20;30.40;;;;;;;0.05;100.00;95440.19;5093210;28;20255;-62
2021/03/14 03:18:01;;;;;;;62.53;31.23;;;;;;;0.16;100.00;95430.94;5092966;28;20231;-63
2021/03/14 03:20:29;;;;;;;56.67;30.80;;;;;;;0.05;100.00;95429.22;5092896;28;20188;-62
2021/03/14 03:22:59;;;;;;;56.77;30.10;;;;;;;0.14;100.00;95435.53;5093019;28;20189;-63
2021/03/14 03:25:26;;;;;;;55.33;30.20;;;;;;;0.18;100.00;95436.59;5092823;28;20320;-64
2021/03/14 03:27:53;;;;;;;46.80;26.90;;;;;;;0.14;100.00;95443.19;5093012;28;20333;-62
2021/03/14 03:30:22;;;;;;;52.87;27.77;;;;;;;0.17;100.00;95432.50;5093493;28;20191;-63
2021/03/14 03:32:50;;;;;;;49.70;27.80;;;;;;;0.01;100.00;95439.09;5092944;28;20238;-62
2021/03/14 03:35:19;;;;;;;46.53;26.43;;;;;;;-0.02;100.00;95440.34;5092564;28;20218;-64
2021/03/14 03:37:48;;;;;;;52.33;28.67;;;;;;;0.10;100.00;95437.00;5092501;28;20643;-61
2021/03/14 03:40:20;;;;;;;48.03;28.73;;;;;;;0.04;100.00;95428.47;5092428;28;20196;-62
2021/03/14 03:42:53;;;;;;;51.47;28.53;;;;;;;0.02;100.00;95430.44;5092597;28;20749;-62
2021/03/14 03:45:22;;;;;;;52.07;28.83;;;;;;;0.04;100.00;95427.69;5092668;28;20212;-62
2021/03/14 03:47:50;;;;;;;54.40;30.33;;;;;;;0.07;100.00;95427.97;5092649;28;20254;-62
2021/03/14 03:50:17;;;;;;;53.37;31.67;;;;;;;0.09;100.00;95425.22;5092245;28;20745;-61
2021/03/14 03:52:48;;;;;;;49.87;29.67;;;;;;;0.12;100.00;95425.53;5092264;28;20235;-61
2021/03/14 03:55:17;;;;;;;45.73;26.87;;;;;;;0.12;100.00;95420.41;5092012;28;20231;-62
2021/03/14 03:57:45;;;;;;;41.50;24.93;;;;;;;0.11;100.00;95423.19;5092222;28;20204;-61
2021/03/14 04:00:15;;;;;;;59.73;32.43;;;;;;;0.20;100.00;95419.28;5092092;28;20278;-61
2021/03/14 04:02:42;;;;;;;55.67;29.70;;;;;;;0.05;100.00;95424.13;5091553;28;20275;-61
2021/03/14 04:05:12;;;;;;;49.10;26.67;;;;;;;-0.21;100.00;95421.09;5092094;28;20210;-61
2021/03/14 04:07:40;;;;;;;61.37;32.40;;;;;;;-0.03;100.00;95418.38;5092144;28;20275;-62
2021/03/14 04:10:11;;;;;;;59.13;33.40;;;;;;;-0.05;100.00;95415.25;5091915;28;20735;-62
2021/03/14 04:12:40;;;;;;;58.80;32.43;;;;;;;-0.09;100.00;95414.16;5091903;28;20235;-62
2021/03/14 04:15:10;;;;;;;59.63;30.17;;;;;;;-0.03;100.00;95418.38;5091640;28;20607;-61
2021/03/14 04:17:38;;;;;;;50.10;29.30;;;;;;;-0.01;100.00;95420.69;5091710;28;20733;-64
2021/03/14 04:20:08;;;;;;;50.63;28.83;;;;;;;-0.16;100.00;95418.66;5091912;28;20278;-62
2021/03/14 04:22:35;;;;;;;52.47;28.67;;;;;;;-0.18;100.00;95414.75;5091765;28;20656;-61
2021/03/14 04:25:03;;;;;;;65.50;34.30;;;;;;;-0.19;100.00;95413.19;5091530;28;20241;-62
2021/03/14 04:27:33;;;;;;;61.57;33.10;;;;;;;-0.19;100.00;95405.53;5091802;28;20198;-62
2021/03/14 04:30:02;;;;;;;56.90;33.40;;;;;;;-0.16;100.00;95408.44;5091411;28;20205;-61
2021/03/14 04:32:29;;;;;;;51.60;30.17;;;;;;;-0.33;100.00;95405.03;5091480;28;20761;-61
2021/03/14 04:34:56;;;;;;;50.27;27.67;;;;;;;-0.29;100.00;95406.13;5091356;28;20670;-62
2021/03/14 04:37:24;;;;;;;44.97;26.97;;;;;;;-0.27;100.00;95406.69;5091458;28;20360;-62
2021/03/14 04:39:53;;;;;;;50.37;29.03;;;;;;;-0.27;100.00;95411.03;5091455;28;20199;-62
2021/03/14 04:42:20;;;;;;;59.13;35.30;;;;;;;-0.32;100.00;95410.94;5091185;28;20670;-61
2021/03/14 04:44:49;;;;;;;46.57;26.47;;;;;;;-0.46;99.56;95405.31;5091515;28;20220;-63
2021/03/14 04:47:16;;;;;;;48.20;26.37;;;;;;;-0.45;100.00;95389.00;5091293;28;20568;-62
2021/03/14 04:49:43;;;;;;;45.87;28.13;;;;;;;-0.62;100.00;95395.81;5091287;28;20556;-63
2021/03/14 04:52:13;;;;;;;56.47;32.07;;;;;;;-0.54;100.00;95386.00;5091100;28;20200;-61
2021/03/14 04:54:40;;;;;;;48.77;30.00;;;;;;;-0.46;100.00;95400.22;5091091;28;20784;-62
2021/03/14 04:57:08;;;;;;;53.47;31.73;;;;;;;-0.40;100.00;95396.75;5090919;28;20318;-63
2021/03/14 04:59:37;;;;;;;52.97;30.33;;;;;;;-0.38;100.00;95393.97;5091058;28;20295;-63
2021/03/14 05:02:07;;;;;;;54.93;30.73;;;;;;;-0.45;100.00;95399.22;5090775;28;20199;-64
2021/03/14 05:04:35;;;;;;;82.37;40.80;;;;;;;-0.45;100.00;95399.22;5090453;28;20634;-60
2021/03/14 05:07:02;;;;;;;90.47;42.10;;;;;;;-0.42;100.00;95396.19;5090075;28;20578;-63
2021/03/14 05:09:30;;;;;;;65.57;35.07;;;;;;;-0.41;100.00;95390.09;5090980;28;20559;-63
2021/03/14 05:11:57;;;;;;;51.77;27.60;;;;;;;-0.53;100.00;95397.00;5090784;28;20246;-63
2021/03/14 05:14:24;;;;;;;56.77;30.47;;;;;;;-0.53;100.00;95391.91;5090682;28;20280;-62
2021/03/14 05:16:52;;;;;;;55.20;30.50;;;;;;;-0.59;100.00;95397.88;5090479;28;20219;-63
2021/03/14 05:19:20;;;;;;;52.97;28.67;;;;;;;-0.48;100.00;95389.44;5091184;28;20206;-62
2021/03/14 05:21:47;;;;;;;54.00;30.80;;;;;;;-0.35;100.00;95401.19;5090468;28;20282;-62
2021/03/14 05:24:15;;;;;;;47.27;26.30;;;;;;;-0.26;100.00;95381.94;5090526;28;20202;-62
2021/03/14 05:26:45;;;;;;;71.10;36.17;;;;;;;-0.08;99.93;95395.28;5090739;28;20227;-61
2021/03/14 05:29:12;;;;;;;62.40;32.37;;;;;;;0.04;99.51;95390.16;5090440;28;20199;-62
2021/03/14 05:31:40;;;;;;;56.67;31.03;;;;;;;0.14;98.77;95392.09;5090591;28;20613;-63
2021/03/14 05:34:09;;;;;;;60.87;33.83;;;;;;;0.22;99.42;95389.16;5090423;28;20203;-63
2021/03/14 05:36:38;;;;;;;60.37;32.03;;;;;;;0.34;99.26;95382.22;5090210;28;20320;-63
2021/03/14 05:39:06;;;;;;;56.27;27.83;;;;;;;0.38;99.05;95383.28;5090338;28;20288;-63
2021/03/14 05:41:35;;;;;;;67.93;36.07;;;;;;;0.45;98.27;95399.22;5090311;28;20234;-61
2021/03/14 05:44:04;;;;;;;68.20;37.87;;;;;;;0.58;98.32;95388.72;5090383;28;20192;-61
2021/03/14 05:46:31;;;;;;;70.83;39.47;;;;;;;0.72;98.58;95394.28;5090390;28;20220;-62
2021/03/14 05:48:58;;;;;;;69.43;38.60;;;;;;;0.86;98.30;95396.28;5090369;28;20207;-62
2021/03/14 05:51:28;;;;;;;77.07;38.63;;;;;;;0.98;98.91;95388.53;5090267;28;20200;-62
2021/03/14 05:53:57;;;;;;;75.07;40.77;;;;;;;1.32;99.21;95389.22;5090119;28;20201;-62
2021/03/14 05:56:25;;;;;;;63.97;37.63;;;;;;;2.04;99.76;95384.59;5090021;28;20258;-64
2021/03/14 05:58:54;;;;;;;64.90;37.80;;;;;;;2.46;98.37;95383.94;5090145;28;20281;-64
2021/03/14 06:01:25;;;;;;;72.60;38.13;;;;;;;2.88;96.58;95392.47;5090105;28;20205;-63
2021/03/14 06:03:55;;;;;;;69.13;38.07;;;;;;;3.17;94.88;95389.56;5090263;28;20260;-61
2021/03/14 06:06:23;;;;;;;70.87;37.37;;;;;;;3.55;93.97;95396.16;5090256;28;20196;-60
2021/03/14 06:08:51;;;;;;;68.77;37.27;;;;;;;3.88;91.59;95388.06;5090041;28;20195;-61
2021/03/14 06:11:20;;;;;;;62.73;35.07;;;;;;;4.40;90.42;95397.38;5090047;28;20697;-61
2021/03/14 06:13:47;;;;;;;55.87;32.80;;;;;;;4.48;89.09;95396.88;5090011;28;20729;-60
2021/03/14 06:16:15;;;;;;;52.20;32.27;;;;;;;4.45;88.03;95402.53;5089862;28;20235;-62
2021/03/14 06:18:42;;;;;;;56.80;34.30;;;;;;;4.64;87.70;95401.00;5090200;28;20238;-62
2021/03/14 06:21:31;;;;;;;64.90;37.07;;;;;;;5.27;86.93;95401.44;5093818;28;20188;-62
2021/03/14 06:24:00;;;;;;;44.57;29.77;;;;;;;6.01;82.70;95402.22;5090841;28;20188;-62
2021/03/14 06:26:36;;;;;;;45.80;28.43;;;;;;;6.78;79.58;95405.03;5093738;28;20249;-62
2021/03/14 06:29:26;;;;;;;47.87;30.37;;;;;;;7.03;77.80;95402.25;5094188;28;20252;-62
2021/03/14 06:31:55;;;;;;;51.00;32.20;;;;;;;6.97;77.43;95402.56;5093733;28;20192;-62
2021/03/14 06:34:30;;;;;;;53.10;31.17;;;;;;;6.33;78.80;95403.56;5093935;28;20230;-61
2021/03/14 06:37:09;;;;;;;53.67;32.93;;;;;;;5.72;81.92;95403.09;5093569;28;20235;-62
2021/03/14 06:39:38;;;;;;;54.73;34.20;;;;;;;5.51;85.08;95407.56;5093550;28;20198;-61
2021/03/14 06:42:07;;;;;;;55.40;33.67;;;;;;;5.54;86.04;95407.03;5093719;28;20281;-61
2021/03/14 06:44:36;;;;;;;60.50;36.90;;;;;;;4.59;90.99;95401.75;5093741;28;20199;-62
2021/03/14 06:47:05;;;;;;;63.50;36.30;;;;;;;4.79;91.61;95395.84;5093435;28;20208;-61
2021/03/14 06:49:40;;;;;;;64.37;35.77;;;;;;;4.73;90.58;95389.19;5093443;28;20191;-62
2021/03/14 06:52:09;;;;;;;60.47;36.23;;;;;;;4.79;92.14;95390.69;5093688;28;20589;-62
2021/03/14 06:54:39;;;;;;;64.40;37.87;;;;;;;4.82;92.51;95390.19;5093319;28;20196;-61
2021/03/14 06:57:12;;;;;;;59.27;36.10;;;;;;;4.83;92.78;95390.97;5093307;28;20277;-62
2021/03/14 06:59:42;;;;;;;64.70;34.57;;;;;;;5.17;93.64;95384.22;5093379;28;20247;-62
2021/03/14 07:02:12;;;;;;;59.67;34.87;;;;;;;5.50;93.08;95387.97;5093231;28;20658;-62
2021/03/14 07:04:42;;;;;;;56.57;35.77;;;;;;;5.38;92.32;95387.50;5092950;28;20715;-64
2021/03/14 07:07:15;;;;;;;68.33;40.17;;;;;;;5.58;90.41;95388.19;5093393;28;20226;-63
2021/03/14 07:09:42;;;;;;;52.87;33.43;;;;;;;5.39;92.64;95384.66;5093102;28;20192;-62
2021/03/14 07:12:21;;;;;;;55.63;35.00;;;;;;;5.43;94.16;95377.19;5093239;28;20191;-62
2021/03/14 07:14:50;;;;;;;55.60;35.80;;;;;;;5.47;95.01;95378.97;5093274;28;20199;-62
2021/03/14 07:17:34;;;;;;;57.67;36.50;;;;;;;5.87;95.02;95370.31;5093160;28;20232;-62
2021/03/14 07:20:05;;;;;;;54.00;35.87;;;;;;;6.23;94.96;95364.91;5092917;28;20195;-62
2021/03/14 07:22:32;;;;;;;63.20;40.00;;;;;;;6.37;93.05;95368.47;5092995;28;20667;-63
2021/03/14 07:24:59;;;;;;;61.13;44.07;;;;;;;6.09;91.67;95366.56;5092765;28;20195;-61
2021/03/14 07:27:29;;;;;;;54.77;37.00;;;;;;;6.34;90.83;95368.97;5092767;28;20689;-62
2021/03/14 07:29:57;;;;;;;60.40;39.93;;;;;;;6.22;91.17;95376.31;5092730;28;20221;-62
2021/03/14 07:32:25;;;;;;;64.30;41.73;;;;;;;6.31;91.88;95366.94;5092595;28;20231;-61
2021/03/14 07:34:52;;;;;;;61.43;41.27;;;;;;;6.30;92.62;95368.75;5092982;28;20199;-62
2021/03/14 07:37:21;;;;;;;66.33;41.10;;;;;;;6.58;90.86;95358.72;5092366;28;20307;-61
2021/03/14 07:39:49;;;;;;;59.77;39.57;;;;;;;6.60;92.27;95359.25;5092436;28;20200;-61
2021/03/14 07:42:20;;;;;;;60.60;38.93;;;;;;;6.86;91.83;95356.19;5092356;28;20245;-62
2021/03/14 07:44:49;;;;;;;52.03;34.80;;;;;;;7.17;89.98;95356.63;5092398;28;20192;-60
2021/03/14 07:47:20;;;;;;;43.00;29.73;;;;;;;7.39;89.55;95356.13;5092535;28;20215;-62
2021/03/14 07:49:52;;;;;;;41.87;30.37;;;;;;;7.65;88.94;95354.81;5092347;28;20196;-62
2021/03/14 07:52:27;;;;;;;38.80;27.57;;;;;;;7.53;88.48;95348.47;5092206;28;20697;-63
2021/03/14 07:54:57;;;;;;;38.77;26.53;;;;;;;7.59;88.38;95345.56;5092207;28;20203;-62
2021/03/14 07:57:27;;;;;;;36.33;25.10;;;;;;;7.82;88.06;95335.47;5092097;28;20228;-61
2021/03/14 07:59:55;;;;;;;36.90;27.60;;;;;;;8.00;87.28;95338.03;5092255;28;20582;-62
2021/03/14 08:02:52;;;;;;;36.87;25.60;;;;;;;8.14;86.60;95338.88;5092046;28;20203;-62
2021/03/14 08:05:19;;;;;;;36.70;25.83;;;;;;;8.19;87.91;95330.25;5092217;28;20204;-62
2021/03/14 08:07:48;;;;;;;36.37;26.47;;;;;;;8.03;88.33;95328.94;5091923;28;20215;-61
2021/03/14 08:10:40;;;;;;;37.07;26.70;;;;;;;8.41;88.20;95316.78;5091958;28;20301;-62
2021/03/14 08:13:14;;;;;;;35.60;24.83;;;;;;;8.58;86.61;95322.94;5092202;28;20203;-61
2021/03/14 08:15:42;;;;;;;37.77;25.90;;;;;;;8.66;85.24;95321.53;5091786;28;20683;-62
2021/03/14 08:18:38;;;;;;;35.67;24.63;;;;;;;8.98;85.14;95310.34;5091710;28;20594;-62
2021/03/14 08:21:37;;;;;;;34.67;23.70;;;;;;;9.27;82.44;95316.00;5091703;28;20203;-62
2021/03/14 08:24:05;;;;;;;32.67;23.90;;;;;;;9.28;82.64;95309.78;5091719;28;20199;-62
2021/03/14 08:26:34;;;;;;;31.67;23.20;;;;;;;9.24;84.03;95308.81;5091638;28;20238;-60
2021/03/14 08:29:02;;;;;;;29.73;22.23;;;;;;;9.51;83.51;95308.78;5091466;28;20231;-63
2021/03/14 08:31:54;;;;;;;31.77;23.60;;;;;;;9.55;82.55;95310.81;5091421;28;20199;-62
2021/03/14 08:34:42;;;;;;;26.93;20.47;;;;;;;9.68;81.44;95310.78;5081510;28;20192;-62
2021/03/14 08:37:22;;;;;;;30.03;19.90;;;;;;;9.93;81.09;95312.06;5091399;28;20617;-62
2021/03/14 08:39:49;;;;;;;25.80;18.97;;;;;;;10.21;80.43;95313.53;5091577;28;20286;-63
2021/03/14 08:42:16;;;;;;;26.23;19.17;;;;;;;10.31;78.17;95307.38;5090653;28;20706;-63
2021/03/14 08:44:44;;;;;;;29.60;21.47;;;;;;;10.35;79.54;95310.91;5091294;28;20192;-63
2021/03/14 08:47:13;;;;;;;25.07;18.47;;;;;;;10.60;77.35;95304.34;5091054;28;20744;-63
2021/03/14 08:49:48;;;;;;;24.87;18.17;;;;;;;10.88;76.15;95307.53;5091243;28;20589;-62
2021/03/14 08:52:16;;;;;;;24.23;18.10;;;;;;;11.17;75.12;95305.19;5091214;28;20296;-64
2021/03/14 08:54:45;;;;;;;31.90;19.43;;;;;;;11.12;74.04;95302.72;5090988;28;20270;-63
2021/03/14 08:57:14;;;;;;;21.97;16.50;;;;;;;11.12;74.65;95297.53;5090891;28;20230;-62
2021/03/14 08:59:47;;;;;;;25.30;17.10;;;;;;;11.16;75.03;95291.41;5091207;28;20622;-63
2021/03/14 09:02:21;;;;;;;23.77;16.60;;;;;;;11.38;73.95;95290.56;5091171;28;20253;-63
2021/03/14 09:04:49;;;;;;;20.23;16.13;;;;;;;11.60;74.43;95281.91;5090643;28;20760;-64
2021/03/14 09:07:16;;;;;;;22.40;15.90;;;;;;;11.66;72.71;95291.06;5091153;28;20232;-62
2021/03/14 09:09:43;;;;;;;20.13;15.17;;;;;;;11.88;73.57;95288.38;5090713;28;20749;-63
2021/03/14 09:12:12;;;;;;;21.23;14.33;;;;;;;12.30;71.17;95293.88;5090871;28;20187;-63
2021/03/14 09:14:41;;;;;;;17.00;12.70;;;;;;;12.04;70.77;95286.84;5090836;28;20253;-63
2021/03/14 09:17:11;;;;;;;24.87;14.90;;;;;;;12.37;68.71;95279.31;5090651;28;20245;-63
2021/03/14 09:19:41;;;;;;;25.63;14.23;;;;;;;12.35;69.32;95265.06;5090722;28;20283;-63
2021/03/14 09:22:12;;;;;;;20.23;13.37;;;;;;;12.73;68.17;95260.66;5090902;28;20200;-63
2021/03/14 09:24:43;;;;;;;16.20;12.70;;;;;;;12.99;68.38;95255.38;5090843;28;20278;-62
2021/03/14 09:27:14;;;;;;;25.43;13.53;;;;;;;13.19;69.41;95249.47;5091145;28;20249;-61
2021/03/14 09:29:49;;;;;;;22.10;12.60;;;;;;;13.40;68.22;95251.34;5091144;28;20203;-61
2021/03/14 09:32:24;;;;;;;78.77;38.83;;;;;;;13.57;66.34;95244.16;5090393;28;20199;-62
2021/03/14 09:35:08;;;;;;;82.60;42.53;;;;;;;13.71;65.30;95244.66;5090763;28;20196;-63
2021/03/14 09:37:36;;;;;;;28.73;17.83;;;;;;;13.87;65.38;95238.88;5090536;28;20235;-62
2021/03/14 09:40:12;;;;;;;13.23;9.83;;;;;;;13.74;64.72;95236.22;5090289;28;20682;-62
2021/03/14 09:42:40;;;;;;;14.67;9.77;;;;;;;13.86;61.89;95237.34;5090554;28;20229;-63
2021/03/14 09:45:10;;;;;;;13.17;9.63;;;;;;;13.93;62.37;95233.13;5090186;28;20329;-65
2021/03/14 09:47:56;;;;;;;12.73;9.87;;;;;;;13.96;62.11;95236.94;5090426;28;20227;-63
2021/03/14 09:50:25;;;;;;;16.10;10.73;;;;;;;13.72;62.25;95235.00;5090320;28;20196;-62
2021/03/14 09:52:52;;;;;;;16.40;9.63;;;;;;;13.72;62.22;95222.69;5089976;28;20603;-63
2021/03/14 09:55:25;;;;;;;17.07;11.40;;;;;;;13.96;62.82;95216.06;5090142;28;20608;-62
2021/03/14 09:57:52;;;;;;;14.43;10.07;;;;;;;14.11;62.72;95215.44;5090007;28;20226;-63
2021/03/14 10:00:24;;;;;;;10.70;8.63;;;;;;;14.13;60.98;95214.06;5090044;28;20231;-62
2021/03/14 10:02:51;;;;;;;14.30;9.00;;;;;;;14.04;61.91;95213.38;5089848;28;20291;-62
2021/03/14 10:05:21;;;;;;;14.00;8.43;;;;;;;14.34;59.79;95205.41;5090272;28;20196;-62
2021/03/14 10:07:53;;;;;;;11.23;8.40;;;;;;;14.40;60.31;95210.09;5090209;28;20203;-63
2021/03/14 10:10:22;;;;;;;17.57;9.93;;;;;;;14.58;60.70;95211.47;5090025;28;20580;-62
2021/03/14 10:12:50;;;;;;;14.50;9.57;;;;;;;14.76;59.02;95206.78;5090111;28;20693;-62
2021/03/14 10:15:18;;;;;;;12.53;8.33;;;;;;;14.93;61.34;95200.59;5090037;28;20332;-62
2021/03/14 10:17:49;;;;;;;13.87;8.60;;;;;;;15.23;58.61;95196.66;5089813;28;20223;-62
2021/03/14 10:20:20;;;;;;;11.60;8.43;;;;;;;15.17;58.25;95194.56;5090141;28;20264;-62
2021/03/14 10:22:47;;;;;;;12.17;8.80;;;;;;;15.40;61.10;95190.38;5090236;28;20195;-63
2021/03/14 10:25:25;;;;;;;10.60;8.40;;;;;;;15.65;56.42;95178.78;5090013;28;20261;-62
2021/03/14 10:27:52;;;;;;;12.20;8.70;;;;;;;15.42;56.64;95173.25;5090049;28;20196;-62
2021/03/14 10:30:20;;;;;;;12.20;8.60;;;;;;;15.53;57.61;95173.59;5089878;28;20196;-63
2021/03/14 10:32:48;;;;;;;14.37;8.30;;;;;;;15.36;56.04;95171.97;5090068;28;20698;-62
2021/03/14 10:35:16;;;;;;;12.53;8.20;;;;;;;15.36;55.63;95165.97;5090131;28;20231;-62
2021/03/14 10:37:43;;;;;;;14.87;8.73;;;;;;;15.32;58.07;95160.63;5089558;28;20783;-62
2021/03/14 10:40:12;;;;;;;12.50;8.70;;;;;;;15.56;57.22;95161.69;5090053;28;20293;-63
2021/03/14 10:42:42;;;;;;;11.73;8.50;;;;;;;15.54;55.27;95154.19;5089669;28;20282;-63
2021/03/14 10:45:12;;;;;;;9.43;6.83;;;;;;;15.55;54.20;95147.06;5089537;28;20196;-63
2021/03/14 10:47:41;;;;;;;9.80;7.37;;;;;;;15.79;53.10;95145.09;5089709;28;20196;-63
2021/03/14 10:50:10;;;;;;;10.00;6.97;;;;;;;15.89;55.00;95146.47;5089652;28;20333;-63
2021/03/14 10:52:37;;;;;;;14.30;7.63;;;;;;;16.06;52.03;95133.09;5089731;28;20725;-63
2021/03/14 10:55:26;;;;;;;13.90;9.80;;;;;;;16.19;53.24;95123.31;5089831;28;20192;-64
2021/03/14 10:58:09;;;;;;;13.57;7.20;;;;;;;16.41;52.23;95112.22;5089710;28;20227;-62
2021/03/14 11:00:38;;;;;;;13.70;7.27;;;;;;;16.57;51.76;95106.97;5089756;28;20701;-64
2021/03/14 11:03:12;;;;;;;9.43;5.80;;;;;;;16.50;51.20;95101.53;5089105;28;20240;-64
2021/03/14 11:05:41;;;;;;;9.87;5.50;;;;;;;16.36;48.88;95094.88;5090992;28;20202;-64
2021/03/14 11:08:09;;;;;;;8.43;5.60;;;;;;;16.44;49.46;95084.56;5093632;28;20203;-64
2021/03/14 11:10:39;;;;;;;10.27;5.27;;;;;;;16.35;51.97;95080.22;5093093;28;20211;-64
2021/03/14 11:13:17;;;;;;;12.00;5.30;;;;;;;16.20;50.19;95083.63;5093083;28;20279;-63
2021/03/14 11:15:44;;;;;;;9.33;5.20;;;;;;;16.39;47.34;95074.31;5093488;28;20200;-61
2021/03/14 11:18:21;;;;;;;9.83;5.03;;;;;;;16.42;48.20;95068.38;5092837;28;20310;-64
2021/03/14 11:20:48;;;;;;;9.53;5.13;;;;;;;16.39;50.19;95061.22;5092816;28;20729;-63
2021/03/14 11:23:15;;;;;;;7.13;4.43;;;;;;;16.37;49.64;95058.91;5092972;28;20279;-63
2021/03/14 11:25:42;;;;;;;9.30;5.27;;;;;;;16.85;50.93;95046.47;5092836;28;20192;-64
2021/03/14 11:28:09;;;;;;;6.73;4.40;;;;;;;16.95;48.93;95044.09;5092741;28;20701;-62
2021/03/14 11:30:38;;;;;;;8.87;3.80;;;;;;;16.95;48.61;95043.31;5092570;28;20280;-64